TimeCST,TemperatureF,Dew PointF,Humidity,Sea Level PressureIn,VisibilityMPH,Wind Direction,Wind SpeedMPH,Gust SpeedMPH,PrecipitationIn,Events,Conditions,WindDirDegrees,DateUTC
12:53 AM,37.9,25.0,60,30.35,10.0,NW,8.1,-,N/A,,Clear,320,2013-01-17 06:53:00
1:53 AM,34.0,24.1,67,30.38,10.0,NNW,10.4,-,N/A,,Clear,340,2013-01-17 07:53:00
2:53 AM,33.1,24.1,70,30.38,10.0,NW,8.1,-,N/A,,Clear,320,2013-01-17 08:53:00
3:53 AM,30.9,23.0,72,30.40,10.0,NW,6.9,-,N/A,,Clear,310,2013-01-17 09:53:00
4:53 AM,32.0,23.0,69,30.41,10.0,NW,6.9,-,N/A,,Clear,320,2013-01-17 10:53:00
5:53 AM,32.0,21.2,64,30.41,10.0,NW,8.1,-,N/A,,Clear,320,2013-01-17 11:53:00
6:53 AM,32.0,21.9,66,30.45,10.0,NW,5.8,-,N/A,,Clear,310,2013-01-17 12:53:00
7:53 AM,28.9,21.0,72,30.48,10.0,West,5.8,-,N/A,,Clear,280,2013-01-17 13:53:00
8:53 AM,34.0,24.1,67,30.51,10.0,WNW,4.6,-,N/A,,Clear,290,2013-01-17 14:53:00
9:53 AM,39.9,24.1,53,30.54,10.0,NNW,6.9,-,N/A,,Clear,330,2013-01-17 15:53:00
10:53 AM,42.1,24.1,49,30.56,10.0,NW,4.6,-,N/A,,Clear,320,2013-01-17 16:53:00
11:53 AM,45.0,24.1,44,30.53,10.0,Calm,Calm,-,N/A,,Clear,0,2013-01-17 17:53:00
12:53 PM,46.9,23.0,39,30.48,10.0,Calm,Calm,-,N/A,,Clear,0,2013-01-17 18:53:00
1:53 PM,51.1,23.0,33,30.45,10.0,ESE,6.9,-,N/A,,Clear,120,2013-01-17 19:53:00
2:53 PM,53.1,21.9,30,30.43,10.0,Variable,6.9,-,N/A,,Clear,0,2013-01-17 20:53:00
3:53 PM,53.1,21.9,30,30.42,10.0,South,10.4,-,N/A,,Clear,180,2013-01-17 21:53:00
4:53 PM,52.0,21.0,30,30.43,10.0,SSE,10.4,-,N/A,,Clear,160,2013-01-17 22:53:00
5:53 PM,46.9,21.9,37,30.44,10.0,SSE,8.1,-,N/A,,Clear,150,2013-01-17 23:53:00
6:53 PM,43.0,23.0,45,30.46,10.0,SSE,10.4,-,N/A,,Clear,150,2013-01-18 00:53:00
7:53 PM,41.0,23.0,49,30.48,10.0,SSE,12.7,-,N/A,,Clear,150,2013-01-18 01:53:00
8:53 PM,41.0,23.0,49,30.47,10.0,South,12.7,-,N/A,,Clear,170,2013-01-18 02:53:00
9:53 PM,37.0,21.9,54,30.47,10.0,South,12.7,-,N/A,,Clear,180,2013-01-18 03:53:00
10:53 PM,37.0,23.0,57,30.45,10.0,South,15.0,-,N/A,,Clear,180,2013-01-18 04:53:00
11:53 PM,37.0,24.1,59,30.43,10.0,South,17.3,25.3,N/A,,Clear,180,2013-01-18 05:53:00